sensor_id;sensor_type;location;lat;lon;timestamp;P1;durP1;ratioP1;P2;durP2;ratioP2
21705;SDS011;11014;53.076;18.208;2023-02-20T00:00:58;5.10;;;2.47;;
21705;SDS011;11014;53.076;18.208;2023-02-20T00:03:26;4.35;;;1.40;;
21705;SDS011;11014;53.076;18.208;2023-02-20T00:05:55;5.25;;;1.88;;
21705;SDS011;11014;53.076;18.208;2023-02-20T00:08:24;6.65;;;2.63;;
21705;SDS011;11014;53.076;18.208;2023-02-20T00:10:52;3.13;;;1.30;;
21705;SDS011;11014;53.076;18.208;2023-02-20T00:13:21;5.47;;;1.98;;
21705;SDS011;11014;53.076;18.208;2023-02-20T00:15:50;6.28;;;1.90;;
21705;SDS011;11014;53.076;18.208;2023-02-20T00:18:18;3.88;;;1.83;;
21705;SDS011;11014;53.076;18.208;2023-02-20T00:20:47;2.90;;;1.58;;
21705;SDS011;11014;53.076;18.208;2023-02-20T00:23:15;6.30;;;2.70;;
21705;SDS011;11014;53.076;18.208;2023-02-20T00:25:44;4.50;;;1.85;;
21705;SDS011;11014;53.076;18.208;2023-02-20T00:28:13;4.60;;;1.45;;
21705;SDS011;11014;53.076;18.208;2023-02-20T00:30:43;2.03;;;1.13;;
21705;SDS011;11014;53.076;18.208;2023-02-20T00:33:13;4.15;;;1.30;;
21705;SDS011;11014;53.076;18.208;2023-02-20T00:35:44;5.55;;;2.22;;
21705;SDS011;11014;53.076;18.208;2023-02-20T00:38:12;4.05;;;1.33;;
21705;SDS011;11014;53.076;18.208;2023-02-20T00:40:41;6.65;;;1.92;;
21705;SDS011;11014;53.076;18.208;2023-02-20T00:43:10;3.35;;;1.67;;
21705;SDS011;11014;53.076;18.208;2023-02-20T00:45:40;5.25;;;1.50;;
21705;SDS011;11014;53.076;18.208;2023-02-20T00:48:11;5.25;;;1.48;;
21705;SDS011;11014;53.076;18.208;2023-02-20T00:50:40;3.40;;;1.50;;
21705;SDS011;11014;53.076;18.208;2023-02-20T00:56:02;2.33;;;0.85;;
21705;SDS011;11014;53.076;18.208;2023-02-20T00:58:33;4.60;;;1.30;;
21705;SDS011;11014;53.076;18.208;2023-02-20T01:01:01;4.03;;;1.58;;
21705;SDS011;11014;53.076;18.208;2023-02-20T01:03:30;2.80;;;1.40;;
21705;SDS011;11014;53.076;18.208;2023-02-20T01:05:59;3.78;;;1.45;;
21705;SDS011;11014;53.076;18.208;2023-02-20T01:08:28;3.05;;;1.30;;
21705;SDS011;11014;53.076;18.208;2023-02-20T01:10:58;4.45;;;1.45;;
21705;SDS011;11014;53.076;18.208;2023-02-20T01:13:26;4.07;;;1.33;;
21705;SDS011;11014;53.076;18.208;2023-02-20T01:15:56;5.60;;;1.35;;
21705;SDS011;11014;53.076;18.208;2023-02-20T01:18:25;3.10;;;1.40;;
21705;SDS011;11014;53.076;18.208;2023-02-20T01:20:54;2.97;;;1.02;;
21705;SDS011;11014;53.076;18.208;2023-02-20T01:23:22;3.55;;;1.35;;
21705;SDS011;11014;53.076;18.208;2023-02-20T01:25:53;4.22;;;1.80;;
21705;SDS011;11014;53.076;18.208;2023-02-20T01:31:18;9.18;;;2.67;;
21705;SDS011;11014;53.076;18.208;2023-02-20T01:33:47;7.28;;;2.95;;
21705;SDS011;11014;53.076;18.208;2023-02-20T01:36:16;8.52;;;4.00;;
21705;SDS011;11014;53.076;18.208;2023-02-20T01:38:47;7.40;;;2.22;;
21705;SDS011;11014;53.076;18.208;2023-02-20T01:41:18;5.55;;;2.22;;
21705;SDS011;11014;53.076;18.208;2023-02-20T01:43:47;4.28;;;1.80;;
21705;SDS011;11014;53.076;18.208;2023-02-20T01:48:59;6.18;;;2.38;;
21705;SDS011;11014;53.076;18.208;2023-02-20T01:51:56;4.72;;;2.25;;
21705;SDS011;11014;53.076;18.208;2023-02-20T01:54:30;4.80;;;1.58;;
21705;SDS011;11014;53.076;18.208;2023-02-20T01:57:02;4.88;;;1.80;;
21705;SDS011;11014;53.076;18.208;2023-02-20T01:59:32;3.13;;;1.43;;
21705;SDS011;11014;53.076;18.208;2023-02-20T02:02:07;4.88;;;1.60;;
21705;SDS011;11014;53.076;18.208;2023-02-20T02:07:08;5.63;;;2.35;;
21705;SDS011;11014;53.076;18.208;2023-02-20T02:09:40;3.90;;;1.70;;
21705;SDS011;11014;53.076;18.208;2023-02-20T02:12:16;7.15;;;2.50;;
21705;SDS011;11014;53.076;18.208;2023-02-20T02:14:45;4.15;;;1.73;;
21705;SDS011;11014;53.076;18.208;2023-02-20T02:29:13;4.50;;;2.30;;
21705;SDS011;11014;53.076;18.208;2023-02-20T02:38:01;5.50;;;2.10;;
21705;SDS011;11014;53.076;18.208;2023-02-20T02:40:51;4.10;;;1.85;;
21705;SDS011;11014;53.076;18.208;2023-02-20T02:46:13;7.78;;;2.15;;
21705;SDS011;11014;53.076;18.208;2023-02-20T02:49:37;3.63;;;1.73;;
21705;SDS011;11014;53.076;18.208;2023-02-20T02:51:53;3.47;;;1.80;;
21705;SDS011;11014;53.076;18.208;2023-02-20T02:54:24;5.45;;;2.10;;
21705;SDS011;11014;53.076;18.208;2023-02-20T02:59:48;4.22;;;1.77;;
21705;SDS011;11014;53.076;18.208;2023-02-20T03:02:23;4.85;;;1.80;;
21705;SDS011;11014;53.076;18.208;2023-02-20T03:04:57;5.80;;;2.00;;
21705;SDS011;11014;53.076;18.208;2023-02-20T03:07:30;4.28;;;1.27;;
21705;SDS011;11014;53.076;18.208;2023-02-20T03:10:06;5.20;;;1.70;;
21705;SDS011;11014;53.076;18.208;2023-02-20T03:12:39;5.80;;;1.95;;
21705;SDS011;11014;53.076;18.208;2023-02-20T03:15:25;5.32;;;1.75;;
21705;SDS011;11014;53.076;18.208;2023-02-20T03:18:16;6.50;;;1.77;;
21705;SDS011;11014;53.076;18.208;2023-02-20T03:21:00;5.53;;;2.13;;
21705;SDS011;11014;53.076;18.208;2023-02-20T03:23:37;4.85;;;1.65;;
21705;SDS011;11014;53.076;18.208;2023-02-20T03:26:14;7.68;;;1.90;;
21705;SDS011;11014;53.076;18.208;2023-02-20T03:29:00;5.57;;;1.65;;
21705;SDS011;11014;53.076;18.208;2023-02-20T03:31:34;6.47;;;2.55;;
21705;SDS011;11014;53.076;18.208;2023-02-20T03:34:13;4.82;;;2.28;;
21705;SDS011;11014;53.076;18.208;2023-02-20T03:37:05;6.43;;;2.13;;
21705;SDS011;11014;53.076;18.208;2023-02-20T03:39:59;3.78;;;2.28;;
21705;SDS011;11014;53.076;18.208;2023-02-20T03:42:54;5.28;;;2.20;;
21705;SDS011;11014;53.076;18.208;2023-02-20T03:45:45;6.50;;;2.43;;
21705;SDS011;11014;53.076;18.208;2023-02-20T03:50:56;5.03;;;2.10;;
21705;SDS011;11014;53.076;18.208;2023-02-20T03:53:54;6.32;;;2.10;;
21705;SDS011;11014;53.076;18.208;2023-02-20T03:59:03;4.63;;;1.80;;
21705;SDS011;11014;53.076;18.208;2023-02-20T04:01:45;3.47;;;1.70;;
21705;SDS011;11014;53.076;18.208;2023-02-20T04:06:49;1.88;;;1.17;;
21705;SDS011;11014;53.076;18.208;2023-02-20T04:09:31;4.97;;;1.70;;
21705;SDS011;11014;53.076;18.208;2023-02-20T04:12:04;6.10;;;1.60;;
21705;SDS011;11014;53.076;18.208;2023-02-20T04:14:55;4.35;;;1.63;;
21705;SDS011;11014;53.076;18.208;2023-02-20T04:17:31;3.83;;;1.60;;
21705;SDS011;11014;53.076;18.208;2023-02-20T04:20:04;2.78;;;1.20;;
21705;SDS011;11014;53.076;18.208;2023-02-20T04:22:38;2.78;;;0.93;;
21705;SDS011;11014;53.076;18.208;2023-02-20T04:28:20;4.80;;;1.88;;
21705;SDS011;11014;53.076;18.208;2023-02-20T04:30:57;6.57;;;2.38;;
21705;SDS011;11014;53.076;18.208;2023-02-20T04:33:26;4.78;;;1.77;;
21705;SDS011;11014;53.076;18.208;2023-02-20T04:36:00;4.45;;;1.85;;
21705;SDS011;11014;53.076;18.208;2023-02-20T04:38:29;4.22;;;2.22;;
21705;SDS011;11014;53.076;18.208;2023-02-20T04:40:59;4.80;;;2.25;;
21705;SDS011;11014;53.076;18.208;2023-02-20T04:43:27;4.72;;;2.08;;
21705;SDS011;11014;53.076;18.208;2023-02-20T04:45:56;4.63;;;1.98;;
21705;SDS011;11014;53.076;18.208;2023-02-20T04:50:59;5.60;;;2.00;;
21705;SDS011;11014;53.076;18.208;2023-02-20T04:53:32;5.40;;;1.90;;
21705;SDS011;11014;53.076;18.208;2023-02-20T04:56:01;4.45;;;1.67;;
21705;SDS011;11014;53.076;18.208;2023-02-20T04:58:31;3.80;;;2.00;;
21705;SDS011;11014;53.076;18.208;2023-02-20T05:01:12;4.15;;;1.88;;
21705;SDS011;11014;53.076;18.208;2023-02-20T05:03:41;6.28;;;2.38;;
21705;SDS011;11014;53.076;18.208;2023-02-20T05:06:09;5.60;;;1.60;;
21705;SDS011;11014;53.076;18.208;2023-02-20T05:08:38;3.38;;;1.73;;
21705;SDS011;11014;53.076;18.208;2023-02-20T05:11:07;4.07;;;1.90;;
21705;SDS011;11014;53.076;18.208;2023-02-20T05:13:50;6.13;;;1.73;;
21705;SDS011;11014;53.076;18.208;2023-02-20T05:16:18;4.55;;;1.90;;
21705;SDS011;11014;53.076;18.208;2023-02-20T05:18:47;7.00;;;2.35;;
21705;SDS011;11014;53.076;18.208;2023-02-20T05:21:15;7.57;;;2.42;;
21705;SDS011;11014;53.076;18.208;2023-02-20T05:24:02;5.28;;;2.20;;
21705;SDS011;11014;53.076;18.208;2023-02-20T05:26:34;4.68;;;2.20;;
21705;SDS011;11014;53.076;18.208;2023-02-20T05:29:03;5.47;;;1.75;;
21705;SDS011;11014;53.076;18.208;2023-02-20T05:31:32;6.38;;;2.33;;
21705;SDS011;11014;53.076;18.208;2023-02-20T05:34:01;6.50;;;2.65;;
21705;SDS011;11014;53.076;18.208;2023-02-20T05:36:29;3.38;;;1.90;;
21705;SDS011;11014;53.076;18.208;2023-02-20T05:38:58;4.85;;;2.33;;
21705;SDS011;11014;53.076;18.208;2023-02-20T05:41:27;6.07;;;1.88;;
21705;SDS011;11014;53.076;18.208;2023-02-20T05:43:56;6.10;;;2.10;;
21705;SDS011;11014;53.076;18.208;2023-02-20T05:46:26;5.38;;;1.75;;
21705;SDS011;11014;53.076;18.208;2023-02-20T05:48:55;2.60;;;1.58;;
21705;SDS011;11014;53.076;18.208;2023-02-20T05:51:24;4.55;;;1.90;;
21705;SDS011;11014;53.076;18.208;2023-02-20T05:53:55;3.20;;;1.55;;
21705;SDS011;11014;53.076;18.208;2023-02-20T05:56:23;5.25;;;2.00;;
21705;SDS011;11014;53.076;18.208;2023-02-20T05:58:52;4.40;;;1.30;;
21705;SDS011;11014;53.076;18.208;2023-02-20T06:01:21;4.00;;;2.22;;
21705;SDS011;11014;53.076;18.208;2023-02-20T06:03:52;3.38;;;1.88;;
21705;SDS011;11014;53.076;18.208;2023-02-20T06:06:20;4.50;;;2.13;;
21705;SDS011;11014;53.076;18.208;2023-02-20T06:08:49;5.75;;;2.38;;
21705;SDS011;11014;53.076;18.208;2023-02-20T06:11:17;4.47;;;1.95;;
21705;SDS011;11014;53.076;18.208;2023-02-20T06:13:46;5.85;;;1.77;;
21705;SDS011;11014;53.076;18.208;2023-02-20T06:16:20;5.65;;;2.30;;
21705;SDS011;11014;53.076;18.208;2023-02-20T06:18:51;1.85;;;1.10;;
21705;SDS011;11014;53.076;18.208;2023-02-20T06:21:20;7.65;;;2.75;;
21705;SDS011;11014;53.076;18.208;2023-02-20T06:23:50;2.58;;;1.45;;
21705;SDS011;11014;53.076;18.208;2023-02-20T06:26:21;6.82;;;2.70;;
21705;SDS011;11014;53.076;18.208;2023-02-20T06:28:50;3.97;;;1.65;;
21705;SDS011;11014;53.076;18.208;2023-02-20T06:31:22;6.07;;;2.35;;
21705;SDS011;11014;53.076;18.208;2023-02-20T06:33:52;5.40;;;2.28;;
21705;SDS011;11014;53.076;18.208;2023-02-20T06:36:26;5.63;;;2.33;;
21705;SDS011;11014;53.076;18.208;2023-02-20T06:38:58;5.35;;;2.42;;
21705;SDS011;11014;53.076;18.208;2023-02-20T06:41:27;8.00;;;3.13;;
21705;SDS011;11014;53.076;18.208;2023-02-20T06:43:56;7.80;;;2.42;;
21705;SDS011;11014;53.076;18.208;2023-02-20T06:46:24;11.02;;;3.10;;
21705;SDS011;11014;53.076;18.208;2023-02-20T06:48:55;6.68;;;3.28;;
21705;SDS011;11014;53.076;18.208;2023-02-20T06:51:25;8.07;;;2.83;;
21705;SDS011;11014;53.076;18.208;2023-02-20T06:54:01;8.18;;;3.45;;
21705;SDS011;11014;53.076;18.208;2023-02-20T06:56:31;6.13;;;3.60;;
21705;SDS011;11014;53.076;18.208;2023-02-20T06:59:03;5.65;;;2.55;;
21705;SDS011;11014;53.076;18.208;2023-02-20T07:01:36;9.85;;;3.78;;
21705;SDS011;11014;53.076;18.208;2023-02-20T07:04:15;10.57;;;3.47;;
21705;SDS011;11014;53.076;18.208;2023-02-20T07:06:46;6.10;;;3.67;;
21705;SDS011;11014;53.076;18.208;2023-02-20T07:09:15;7.38;;;3.63;;
21705;SDS011;11014;53.076;18.208;2023-02-20T07:11:43;6.03;;;3.42;;
21705;SDS011;11014;53.076;18.208;2023-02-20T07:14:12;5.13;;;2.92;;
21705;SDS011;11014;53.076;18.208;2023-02-20T07:16:40;7.13;;;3.97;;
21705;SDS011;11014;53.076;18.208;2023-02-20T07:19:09;9.40;;;4.60;;
21705;SDS011;11014;53.076;18.208;2023-02-20T07:21:38;8.75;;;4.20;;
21705;SDS011;11014;53.076;18.208;2023-02-20T07:24:06;7.03;;;3.78;;
21705;SDS011;11014;53.076;18.208;2023-02-20T07:26:35;8.38;;;4.05;;
21705;SDS011;11014;53.076;18.208;2023-02-20T07:29:06;9.80;;;4.75;;
21705;SDS011;11014;53.076;18.208;2023-02-20T07:31:35;5.28;;;2.92;;
21705;SDS011;11014;53.076;18.208;2023-02-20T07:34:04;5.90;;;3.20;;
21705;SDS011;11014;53.076;18.208;2023-02-20T07:36:37;5.60;;;2.25;;
21705;SDS011;11014;53.076;18.208;2023-02-20T07:39:06;12.23;;;4.80;;
21705;SDS011;11014;53.076;18.208;2023-02-20T07:41:34;6.88;;;4.15;;
21705;SDS011;11014;53.076;18.208;2023-02-20T07:44:05;7.55;;;3.53;;
21705;SDS011;11014;53.076;18.208;2023-02-20T07:46:34;8.48;;;3.97;;
21705;SDS011;11014;53.076;18.208;2023-02-20T07:49:03;10.60;;;5.07;;
21705;SDS011;11014;53.076;18.208;2023-02-20T07:51:32;8.50;;;3.88;;
21705;SDS011;11014;53.076;18.208;2023-02-20T07:54:01;6.03;;;3.33;;
21705;SDS011;11014;53.076;18.208;2023-02-20T07:56:30;7.30;;;3.25;;
21705;SDS011;11014;53.076;18.208;2023-02-20T07:58:59;8.93;;;5.07;;
21705;SDS011;11014;53.076;18.208;2023-02-20T08:01:28;8.45;;;3.88;;
21705;SDS011;11014;53.076;18.208;2023-02-20T08:03:57;5.97;;;3.58;;
21705;SDS011;11014;53.076;18.208;2023-02-20T08:06:25;8.00;;;3.50;;
21705;SDS011;11014;53.076;18.208;2023-02-20T08:08:56;9.30;;;5.22;;
21705;SDS011;11014;53.076;18.208;2023-02-20T08:11:24;8.95;;;5.32;;
21705;SDS011;11014;53.076;18.208;2023-02-20T08:13:53;8.35;;;4.53;;
21705;SDS011;11014;53.076;18.208;2023-02-20T08:16:22;8.68;;;4.72;;
21705;SDS011;11014;53.076;18.208;2023-02-20T08:18:52;10.98;;;5.60;;
21705;SDS011;11014;53.076;18.208;2023-02-20T08:21:21;6.78;;;4.13;;
21705;SDS011;11014;53.076;18.208;2023-02-20T08:23:49;8.07;;;4.45;;
21705;SDS011;11014;53.076;18.208;2023-02-20T08:26:19;11.13;;;5.95;;
21705;SDS011;11014;53.076;18.208;2023-02-20T08:28:48;12.93;;;6.10;;
21705;SDS011;11014;53.076;18.208;2023-02-20T08:31:17;6.63;;;4.07;;
21705;SDS011;11014;53.076;18.208;2023-02-20T08:34:00;10.45;;;5.88;;
21705;SDS011;11014;53.076;18.208;2023-02-20T08:36:28;8.55;;;3.65;;
21705;SDS011;11014;53.076;18.208;2023-02-20T08:38:57;8.05;;;5.18;;
21705;SDS011;11014;53.076;18.208;2023-02-20T08:41:30;8.65;;;5.95;;
21705;SDS011;11014;53.076;18.208;2023-02-20T08:43:59;11.70;;;6.10;;
21705;SDS011;11014;53.076;18.208;2023-02-20T08:46:28;7.88;;;4.55;;
21705;SDS011;11014;53.076;18.208;2023-02-20T08:48:56;11.23;;;5.70;;
21705;SDS011;11014;53.076;18.208;2023-02-20T08:51:25;9.73;;;5.05;;
21705;SDS011;11014;53.076;18.208;2023-02-20T08:53:54;9.27;;;4.78;;
21705;SDS011;11014;53.076;18.208;2023-02-20T08:56:22;10.63;;;6.03;;
21705;SDS011;11014;53.076;18.208;2023-02-20T08:58:52;13.32;;;7.72;;
21705;SDS011;11014;53.076;18.208;2023-02-20T09:01:20;11.15;;;6.13;;
21705;SDS011;11014;53.076;18.208;2023-02-20T09:03:49;9.93;;;4.93;;
21705;SDS011;11014;53.076;18.208;2023-02-20T09:06:18;10.50;;;5.82;;
21705;SDS011;11014;53.076;18.208;2023-02-20T09:08:47;8.77;;;4.70;;
21705;SDS011;11014;53.076;18.208;2023-02-20T09:11:15;12.20;;;5.45;;
21705;SDS011;11014;53.076;18.208;2023-02-20T09:13:45;11.18;;;6.95;;
21705;SDS011;11014;53.076;18.208;2023-02-20T09:16:16;11.35;;;5.68;;
21705;SDS011;11014;53.076;18.208;2023-02-20T09:18:48;10.10;;;5.50;;
21705;SDS011;11014;53.076;18.208;2023-02-20T09:21:17;12.25;;;6.80;;
21705;SDS011;11014;53.076;18.208;2023-02-20T09:23:46;9.45;;;5.65;;
21705;SDS011;11014;53.076;18.208;2023-02-20T09:26:15;8.57;;;4.68;;
21705;SDS011;11014;53.076;18.208;2023-02-20T09:40:30;13.90;;;7.45;;
21705;SDS011;11014;53.076;18.208;2023-02-20T09:43:18;11.02;;;6.38;;
21705;SDS011;11014;53.076;18.208;2023-02-20T09:51:07;11.25;;;6.38;;
21705;SDS011;11014;53.076;18.208;2023-02-20T09:53:53;9.15;;;5.30;;
21705;SDS011;11014;53.076;18.208;2023-02-20T09:56:29;11.38;;;7.60;;
21705;SDS011;11014;53.076;18.208;2023-02-20T10:00:40;9.07;;;4.63;;
21705;SDS011;11014;53.076;18.208;2023-02-20T10:03:12;10.25;;;5.90;;
21705;SDS011;11014;53.076;18.208;2023-02-20T10:09:17;8.90;;;5.97;;
21705;SDS011;11014;53.076;18.208;2023-02-20T10:17:37;11.77;;;5.70;;
21705;SDS011;11014;53.076;18.208;2023-02-20T10:20:23;12.18;;;7.13;;
21705;SDS011;11014;53.076;18.208;2023-02-20T10:23:08;10.88;;;7.40;;
21705;SDS011;11014;53.076;18.208;2023-02-20T10:25:44;10.38;;;6.97;;
21705;SDS011;11014;53.076;18.208;2023-02-20T10:28:18;9.63;;;6.13;;
21705;SDS011;11014;53.076;18.208;2023-02-20T10:33:26;10.80;;;6.47;;
21705;SDS011;11014;53.076;18.208;2023-02-20T10:36:09;7.75;;;5.53;;
21705;SDS011;11014;53.076;18.208;2023-02-20T10:38:48;13.57;;;6.10;;
21705;SDS011;11014;53.076;18.208;2023-02-20T10:41:42;12.73;;;7.68;;
21705;SDS011;11014;53.076;18.208;2023-02-20T10:47:01;9.27;;;5.72;;
21705;SDS011;11014;53.076;18.208;2023-02-20T10:52:21;12.35;;;7.47;;
21705;SDS011;11014;53.076;18.208;2023-02-20T10:55:05;11.13;;;7.43;;
21705;SDS011;11014;53.076;18.208;2023-02-20T11:00:47;8.32;;;5.57;;
21705;SDS011;11014;53.076;18.208;2023-02-20T11:03:23;10.02;;;6.18;;
21705;SDS011;11014;53.076;18.208;2023-02-20T11:06:12;8.52;;;5.55;;
21705;SDS011;11014;53.076;18.208;2023-02-20T11:08:44;14.93;;;9.50;;
21705;SDS011;11014;53.076;18.208;2023-02-20T11:11:25;11.60;;;7.32;;
21705;SDS011;11014;53.076;18.208;2023-02-20T11:14:08;11.10;;;6.78;;
21705;SDS011;11014;53.076;18.208;2023-02-20T11:23:55;11.88;;;6.50;;
21705;SDS011;11014;53.076;18.208;2023-02-20T11:26:25;12.88;;;6.13;;
21705;SDS011;11014;53.076;18.208;2023-02-20T11:28:59;14.30;;;8.30;;
21705;SDS011;11014;53.076;18.208;2023-02-20T11:31:32;8.98;;;5.72;;
21705;SDS011;11014;53.076;18.208;2023-02-20T11:34:03;11.90;;;6.55;;
21705;SDS011;11014;53.076;18.208;2023-02-20T11:36:41;16.02;;;9.98;;
21705;SDS011;11014;53.076;18.208;2023-02-20T11:39:19;11.52;;;7.65;;
21705;SDS011;11014;53.076;18.208;2023-02-20T11:42:06;12.73;;;8.10;;
21705;SDS011;11014;53.076;18.208;2023-02-20T11:44:40;11.20;;;7.00;;
21705;SDS011;11014;53.076;18.208;2023-02-20T11:49:37;19.45;;;12.68;;
21705;SDS011;11014;53.076;18.208;2023-02-20T11:52:07;16.17;;;8.55;;
21705;SDS011;11014;53.076;18.208;2023-02-20T11:54:47;20.20;;;11.80;;
21705;SDS011;11014;53.076;18.208;2023-02-20T11:57:41;9.75;;;6.15;;
21705;SDS011;11014;53.076;18.208;2023-02-20T12:02:48;9.25;;;6.30;;
21705;SDS011;11014;53.076;18.208;2023-02-20T12:05:19;12.10;;;6.67;;
21705;SDS011;11014;53.076;18.208;2023-02-20T12:10:24;10.15;;;5.22;;
21705;SDS011;11014;53.076;18.208;2023-02-20T12:12:58;15.60;;;8.18;;
21705;SDS011;11014;53.076;18.208;2023-02-20T12:15:27;11.50;;;7.13;;
21705;SDS011;11014;53.076;18.208;2023-02-20T12:20:28;11.85;;;8.82;;
21705;SDS011;11014;53.076;18.208;2023-02-20T12:23:19;11.10;;;7.03;;
21705;SDS011;11014;53.076;18.208;2023-02-20T12:31:39;13.77;;;7.80;;
21705;SDS011;11014;53.076;18.208;2023-02-20T12:47:44;9.20;;;6.18;;
21705;SDS011;11014;53.076;18.208;2023-02-20T12:58:48;9.77;;;5.18;;
21705;SDS011;11014;53.076;18.208;2023-02-20T13:01:33;13.52;;;6.60;;
21705;SDS011;11014;53.076;18.208;2023-02-20T13:04:16;10.30;;;6.85;;
21705;SDS011;11014;53.076;18.208;2023-02-20T13:09:45;9.85;;;7.20;;
21705;SDS011;11014;53.076;18.208;2023-02-20T13:12:25;8.27;;;4.80;;
21705;SDS011;11014;53.076;18.208;2023-02-20T13:15:11;9.32;;;6.88;;
21705;SDS011;11014;53.076;18.208;2023-02-20T13:20:27;10.63;;;6.03;;
21705;SDS011;11014;53.076;18.208;2023-02-20T13:23:04;13.02;;;4.90;;
21705;SDS011;11014;53.076;18.208;2023-02-20T13:25:35;9.82;;;5.75;;
21705;SDS011;11014;53.076;18.208;2023-02-20T13:28:20;8.95;;;5.40;;
21705;SDS011;11014;53.076;18.208;2023-02-20T13:31:15;11.43;;;5.97;;
21705;SDS011;11014;53.076;18.208;2023-02-20T13:34:24;9.15;;;6.95;;
21705;SDS011;11014;53.076;18.208;2023-02-20T13:36:49;8.13;;;5.45;;
21705;SDS011;11014;53.076;18.208;2023-02-20T13:47:04;5.90;;;3.65;;
21705;SDS011;11014;53.076;18.208;2023-02-20T13:49:56;8.77;;;5.90;;
21705;SDS011;11014;53.076;18.208;2023-02-20T13:55:25;6.22;;;4.43;;
21705;SDS011;11014;53.076;18.208;2023-02-20T13:57:57;6.95;;;4.85;;
21705;SDS011;11014;53.076;18.208;2023-02-20T14:00:53;9.93;;;6.70;;
21705;SDS011;11014;53.076;18.208;2023-02-20T14:03:26;8.27;;;6.25;;
21705;SDS011;11014;53.076;18.208;2023-02-20T14:06:05;8.07;;;4.85;;
21705;SDS011;11014;53.076;18.208;2023-02-20T14:08:35;10.50;;;6.47;;
21705;SDS011;11014;53.076;18.208;2023-02-20T14:14:20;6.35;;;3.83;;
21705;SDS011;11014;53.076;18.208;2023-02-20T14:17:04;12.45;;;6.30;;
21705;SDS011;11014;53.076;18.208;2023-02-20T14:19:44;6.57;;;4.25;;
21705;SDS011;11014;53.076;18.208;2023-02-20T14:28:12;6.78;;;4.75;;
21705;SDS011;11014;53.076;18.208;2023-02-20T14:30:42;4.25;;;3.42;;
21705;SDS011;11014;53.076;18.208;2023-02-20T14:33:18;15.02;;;8.60;;
21705;SDS011;11014;53.076;18.208;2023-02-20T14:41:27;4.40;;;3.17;;
21705;SDS011;11014;53.076;18.208;2023-02-20T14:43:59;9.45;;;4.68;;
21705;SDS011;11014;53.076;18.208;2023-02-20T14:46:32;5.90;;;3.97;;
21705;SDS011;11014;53.076;18.208;2023-02-20T14:51:36;7.47;;;5.28;;
21705;SDS011;11014;53.076;18.208;2023-02-20T14:54:16;7.22;;;4.90;;
21705;SDS011;11014;53.076;18.208;2023-02-20T14:56:45;6.63;;;4.72;;
21705;SDS011;11014;53.076;18.208;2023-02-20T15:01:57;5.18;;;4.28;;
21705;SDS011;11014;53.076;18.208;2023-02-20T15:04:29;6.38;;;4.80;;
21705;SDS011;11014;53.076;18.208;2023-02-20T15:07:04;7.22;;;4.13;;
21705;SDS011;11014;53.076;18.208;2023-02-20T15:09:36;7.63;;;5.28;;
21705;SDS011;11014;53.076;18.208;2023-02-20T15:12:07;6.50;;;4.78;;
21705;SDS011;11014;53.076;18.208;2023-02-20T15:14:54;9.98;;;5.55;;
21705;SDS011;11014;53.076;18.208;2023-02-20T15:17:34;4.07;;;3.08;;
21705;SDS011;11014;53.076;18.208;2023-02-20T15:20:35;8.95;;;3.70;;
21705;SDS011;11014;53.076;18.208;2023-02-20T15:27:16;4.85;;;3.67;;
21705;SDS011;11014;53.076;18.208;2023-02-20T15:30:05;6.22;;;4.18;;
21705;SDS011;11014;53.076;18.208;2023-02-20T15:32:36;6.45;;;3.45;;
21705;SDS011;11014;53.076;18.208;2023-02-20T15:35:13;5.55;;;2.90;;
21705;SDS011;11014;53.076;18.208;2023-02-20T15:37:44;4.90;;;3.50;;
21705;SDS011;11014;53.076;18.208;2023-02-20T15:52:30;4.70;;;3.20;;
21705;SDS011;11014;53.076;18.208;2023-02-20T15:54:59;6.97;;;5.25;;
21705;SDS011;11014;53.076;18.208;2023-02-20T15:57:29;5.28;;;3.70;;
21705;SDS011;11014;53.076;18.208;2023-02-20T15:59:58;4.97;;;4.05;;
21705;SDS011;11014;53.076;18.208;2023-02-20T16:02:27;3.85;;;3.03;;
21705;SDS011;11014;53.076;18.208;2023-02-20T16:04:58;6.68;;;4.72;;
21705;SDS011;11014;53.076;18.208;2023-02-20T16:07:26;5.80;;;4.38;;
21705;SDS011;11014;53.076;18.208;2023-02-20T16:09:55;5.47;;;3.78;;
21705;SDS011;11014;53.076;18.208;2023-02-20T16:12:25;5.15;;;4.10;;
21705;SDS011;11014;53.076;18.208;2023-02-20T16:14:55;3.85;;;2.80;;
21705;SDS011;11014;53.076;18.208;2023-02-20T16:17:26;5.15;;;3.72;;
21705;SDS011;11014;53.076;18.208;2023-02-20T16:19:59;4.20;;;3.33;;
21705;SDS011;11014;53.076;18.208;2023-02-20T16:22:29;4.40;;;3.60;;
21705;SDS011;11014;53.076;18.208;2023-02-20T16:24:58;3.47;;;2.80;;
21705;SDS011;11014;53.076;18.208;2023-02-20T16:27:27;4.82;;;3.33;;
21705;SDS011;11014;53.076;18.208;2023-02-20T16:29:58;4.72;;;2.63;;
21705;SDS011;11014;53.076;18.208;2023-02-20T16:32:31;7.65;;;3.67;;
21705;SDS011;11014;53.076;18.208;2023-02-20T16:34:59;4.03;;;3.15;;
21705;SDS011;11014;53.076;18.208;2023-02-20T16:37:29;4.45;;;3.28;;
21705;SDS011;11014;53.076;18.208;2023-02-20T16:39:59;5.05;;;3.22;;
21705;SDS011;11014;53.076;18.208;2023-02-20T16:42:34;6.57;;;3.50;;
21705;SDS011;11014;53.076;18.208;2023-02-20T16:45:12;4.45;;;3.53;;
21705;SDS011;11014;53.076;18.208;2023-02-20T16:47:42;7.75;;;4.07;;
21705;SDS011;11014;53.076;18.208;2023-02-20T16:50:15;9.52;;;5.72;;
21705;SDS011;11014;53.076;18.208;2023-02-20T16:52:48;4.60;;;3.17;;
21705;SDS011;11014;53.076;18.208;2023-02-20T16:55:20;7.13;;;4.35;;
21705;SDS011;11014;53.076;18.208;2023-02-20T16:57:54;4.22;;;3.17;;
21705;SDS011;11014;53.076;18.208;2023-02-20T17:00:24;4.10;;;3.28;;
21705;SDS011;11014;53.076;18.208;2023-02-20T17:02:59;4.38;;;3.63;;
21705;SDS011;11014;53.076;18.208;2023-02-20T17:05:30;2.90;;;2.25;;
21705;SDS011;11014;53.076;18.208;2023-02-20T17:08:02;4.63;;;3.65;;
21705;SDS011;11014;53.076;18.208;2023-02-20T17:10:32;4.72;;;2.75;;
21705;SDS011;11014;53.076;18.208;2023-02-20T17:15:56;3.63;;;2.40;;
21705;SDS011;11014;53.076;18.208;2023-02-20T17:18:24;4.65;;;3.75;;
21705;SDS011;11014;53.076;18.208;2023-02-20T17:20:53;6.28;;;3.03;;
21705;SDS011;11014;53.076;18.208;2023-02-20T17:23:23;7.22;;;3.67;;
21705;SDS011;11014;53.076;18.208;2023-02-20T17:25:52;4.22;;;3.30;;
21705;SDS011;11014;53.076;18.208;2023-02-20T17:28:26;7.82;;;5.15;;
21705;SDS011;11014;53.076;18.208;2023-02-20T17:30:54;6.05;;;4.38;;
21705;SDS011;11014;53.076;18.208;2023-02-20T17:33:23;5.78;;;3.28;;
21705;SDS011;11014;53.076;18.208;2023-02-20T17:35:52;6.38;;;3.70;;
21705;SDS011;11014;53.076;18.208;2023-02-20T17:38:21;3.72;;;2.80;;
21705;SDS011;11014;53.076;18.208;2023-02-20T17:40:51;4.68;;;2.88;;
21705;SDS011;11014;53.076;18.208;2023-02-20T17:43:21;2.58;;;2.05;;
21705;SDS011;11014;53.076;18.208;2023-02-20T17:45:52;4.50;;;2.92;;
21705;SDS011;11014;53.076;18.208;2023-02-20T17:48:20;3.53;;;2.55;;
21705;SDS011;11014;53.076;18.208;2023-02-20T17:50:49;3.30;;;2.45;;
21705;SDS011;11014;53.076;18.208;2023-02-20T17:53:17;5.00;;;2.80;;
21705;SDS011;11014;53.076;18.208;2023-02-20T17:55:46;4.18;;;2.42;;
21705;SDS011;11014;53.076;18.208;2023-02-20T18:01:10;5.85;;;2.55;;
21705;SDS011;11014;53.076;18.208;2023-02-20T18:03:39;4.57;;;3.15;;
21705;SDS011;11014;53.076;18.208;2023-02-20T18:06:09;3.80;;;2.90;;
21705;SDS011;11014;53.076;18.208;2023-02-20T18:08:39;5.50;;;2.97;;
21705;SDS011;11014;53.076;18.208;2023-02-20T18:11:08;3.22;;;2.65;;
21705;SDS011;11014;53.076;18.208;2023-02-20T18:13:39;4.45;;;2.00;;
21705;SDS011;11014;53.076;18.208;2023-02-20T18:16:08;3.78;;;2.40;;
21705;SDS011;11014;53.076;18.208;2023-02-20T18:18:37;5.65;;;4.18;;